createdAt,value
2023-01-01T00:00:01.927Z,72.45
2023-01-01T00:02:37.670Z,88.65
2023-01-01T00:05:05.922Z,88.60
2023-01-01T00:07:33.000Z,74.53
2023-01-01T00:10:18.320Z,57.65
2023-01-01T00:12:45.209Z,64.88
2023-01-01T00:15:12.035Z,65.78
2023-01-01T00:17:39.263Z,59.80
2023-01-01T00:20:06.859Z,54.25
2023-01-01T00:25:20.724Z,39.72
2023-01-01T00:27:47.682Z,40.38
2023-01-01T00:30:15.243Z,51.65
2023-01-01T00:32:42.117Z,54.30
2023-01-01T00:35:09.732Z,52.90
2023-01-01T00:37:39.426Z,52.38
2023-01-01T00:40:11.094Z,41.65
2023-01-01T00:42:40.788Z,48.40
2023-01-01T00:45:08.691Z,38.85
2023-01-01T00:47:35.799Z,46.20
2023-01-01T00:50:03.479Z,48.95
2023-01-01T00:52:32.026Z,81.80
2023-01-01T00:54:59.507Z,65.78
2023-01-01T00:57:26.587Z,63.92
2023-01-01T00:59:53.494Z,75.18
2023-01-01T01:02:20.750Z,89.82
2023-01-01T01:04:47.738Z,99.63
2023-01-01T01:07:14.804Z,87.43
2023-01-01T01:09:41.746Z,90.97
2023-01-01T01:12:17.964Z,79.28
2023-01-01T01:14:46.137Z,77.30
2023-01-01T01:17:13.145Z,70.75
2023-01-01T01:19:40.164Z,81.97
2023-01-01T01:22:07.016Z,70.45
2023-01-01T01:24:34.061Z,66.95
2023-01-01T01:27:01.047Z,77.50
2023-01-01T01:29:28.016Z,70.63
2023-01-01T01:31:55.229Z,84.75
2023-01-01T01:34:27.436Z,79.10
2023-01-01T01:36:57.323Z,90.28
2023-01-01T01:39:24.197Z,92.40
2023-01-01T01:41:51.334Z,60.00
2023-01-01T01:44:46.423Z,65.95
2023-01-01T01:47:27.438Z,63.38
2023-01-01T01:50:29.026Z,70.90
2023-01-01T01:55:23.086Z,94.00
2023-01-01T01:57:50.345Z,111.30
2023-01-01T02:00:17.272Z,100.95
2023-01-01T02:02:55.112Z,107.97
2023-01-01T02:05:23.099Z,134.73
2023-01-01T02:07:52.096Z,103.68
2023-01-01T02:10:19.189Z,74.45
2023-01-01T02:12:46.311Z,76.55
2023-01-01T02:15:13.792Z,68.68
2023-01-01T02:17:54.716Z,79.82
2023-01-01T02:20:34.721Z,74.82
2023-01-01T02:23:36.899Z,74.85
2023-01-01T02:26:22.104Z,73.45
2023-01-01T02:29:05.637Z,69.80
2023-01-01T02:31:39.946Z,78.07
2023-01-01T02:34:12.974Z,67.35
2023-01-01T02:36:50.677Z,66.03
2023-01-01T02:39:21.503Z,65.07
2023-01-01T02:41:53.036Z,67.03
2023-01-01T02:44:22.472Z,74.40
2023-01-01T02:46:49.424Z,82.25
2023-01-01T02:49:16.392Z,82.43
2023-01-01T02:52:04.927Z,67.55
2023-01-01T02:54:41.353Z,75.95
2023-01-01T02:57:23.386Z,80.45
2023-01-01T03:00:21.784Z,87.25
2023-01-01T03:03:26.521Z,89.05
2023-01-01T03:06:24.530Z,86.72
2023-01-01T03:09:06.587Z,83.18
2023-01-01T03:11:43.910Z,78.80
2023-01-01T03:14:28.025Z,69.70
2023-01-01T03:16:59.542Z,60.05
2023-01-01T03:19:31.955Z,62.78
2023-01-01T03:22:10.626Z,61.88
2023-01-01T03:24:44.392Z,37.60
2023-01-01T03:27:23.767Z,37.05
2023-01-01T03:29:53.623Z,36.53
2023-01-01T03:32:46.827Z,49.50
2023-01-01T03:35:16.184Z,45.78
2023-01-01T03:37:45.360Z,54.35
2023-01-01T03:40:14.385Z,54.05
2023-01-01T03:42:48.700Z,43.72
2023-01-01T03:45:28.597Z,45.00
2023-01-01T03:47:56.827Z,51.20
2023-01-01T03:50:33.714Z,53.83
2023-01-01T03:53:10.127Z,54.42
2023-01-01T03:55:48.913Z,46.22
2023-01-01T03:58:24.751Z,45.25
2023-01-01T04:01:01.497Z,48.42
2023-01-01T04:03:31.176Z,44.75
2023-01-01T04:05:58.262Z,38.47
2023-01-01T04:08:25.429Z,42.70
2023-01-01T04:10:57.246Z,44.72
2023-01-01T04:13:24.380Z,38.38
2023-01-01T04:15:51.565Z,42.75
2023-01-01T04:18:18.805Z,46.45
2023-01-01T04:20:45.686Z,45.58
2023-01-01T04:23:12.549Z,46.25
2023-01-01T04:25:39.579Z,40.75
2023-01-01T04:28:06.991Z,34.42
2023-01-01T04:32:59.940Z,41.92
2023-01-01T04:35:26.874Z,37.78
2023-01-01T04:37:54.022Z,45.35
2023-01-01T04:40:20.987Z,46.50
2023-01-01T04:42:48.036Z,51.38
2023-01-01T04:45:15.597Z,50.63
2023-01-01T04:47:42.902Z,49.05
2023-01-01T04:50:10.659Z,43.58
2023-01-01T04:52:37.605Z,40.80
2023-01-01T04:55:04.924Z,41.15
2023-01-01T04:57:32.090Z,57.22
2023-01-01T05:00:00.111Z,53.05
2023-01-01T05:02:27.543Z,39.63
2023-01-01T05:04:54.625Z,33.78
2023-01-01T05:07:21.627Z,28.42
2023-01-01T05:09:48.611Z,34.53
2023-01-01T05:12:15.723Z,36.03
2023-01-01T05:14:42.694Z,35.47
2023-01-01T05:17:09.724Z,32.03
2023-01-01T05:19:36.530Z,35.47
2023-01-01T05:22:10.191Z,32.40
2023-01-01T05:24:37.989Z,39.47
2023-01-01T05:27:05.643Z,42.53
2023-01-01T05:29:32.635Z,41.80
2023-01-01T05:31:59.648Z,54.05
2023-01-01T05:34:27.462Z,60.65
2023-01-01T05:36:54.844Z,51.58
2023-01-01T05:39:21.910Z,48.95
2023-01-01T05:41:49.196Z,46.47
2023-01-01T05:44:17.383Z,34.88
2023-01-01T05:46:44.481Z,35.10
2023-01-01T05:49:12.161Z,37.78
2023-01-01T05:54:05.235Z,35.08
2023-01-01T05:56:32.372Z,32.42
2023-01-01T05:58:59.426Z,37.65
2023-01-01T06:01:29.138Z,54.60
2023-01-01T06:03:58.180Z,40.60
2023-01-01T06:06:33.347Z,67.45
2023-01-01T06:09:02.767Z,62.25
2023-01-01T06:11:30.803Z,53.38
2023-01-01T06:13:59.995Z,50.70
2023-01-01T06:16:31.292Z,87.55
2023-01-01T06:18:59.393Z,104.38
2023-01-01T06:21:28.325Z,100.40
2023-01-01T06:23:59.884Z,97.80
2023-01-01T06:26:31.054Z,78.43
2023-01-01T06:28:58.951Z,86.75
2023-01-01T06:31:32.996Z,78.60
2023-01-01T06:34:04.168Z,44.95
2023-01-01T06:36:30.990Z,35.63
2023-01-01T06:39:00.243Z,36.38
2023-01-01T06:41:42.851Z,35.95
2023-01-01T06:44:10.990Z,49.42
2023-01-01T06:46:37.933Z,72.43
2023-01-01T06:49:11.351Z,80.82
2023-01-01T06:51:41.474Z,156.80
2023-01-01T06:54:08.986Z,70.95
2023-01-01T06:56:36.819Z,66.20
2023-01-01T06:59:04.817Z,69.53
2023-01-01T07:01:35.795Z,68.10
2023-01-01T07:04:08.652Z,64.10
2023-01-01T07:06:36.660Z,56.50
2023-01-01T07:09:05.281Z,54.22
2023-01-01T07:11:33.229Z,44.40
2023-01-01T07:14:01.599Z,46.67
2023-01-01T07:16:28.790Z,44.08
2023-01-01T07:18:57.549Z,39.63
2023-01-01T07:21:36.431Z,42.30
2023-01-01T07:24:05.658Z,45.53
2023-01-01T07:26:34.427Z,51.60
2023-01-01T07:29:08.033Z,49.15
2023-01-01T07:31:40.319Z,36.25
2023-01-01T07:34:10.047Z,66.03
2023-01-01T07:36:37.103Z,43.20
2023-01-01T07:39:04.206Z,52.13
2023-01-01T07:41:31.123Z,52.08
2023-01-01T07:43:59.464Z,88.57
2023-01-01T07:46:27.475Z,119.03
2023-01-01T07:48:54.348Z,70.93
2023-01-01T07:51:21.579Z,98.80
2023-01-01T07:53:48.601Z,95.80
2023-01-01T07:56:16.095Z,108.22
2023-01-01T07:58:42.925Z,112.22
2023-01-01T08:01:12.533Z,108.78
2023-01-01T08:03:39.684Z,110.43
2023-01-01T08:06:11.588Z,92.28
2023-01-01T08:08:38.847Z,94.35
2023-01-01T08:11:06.365Z,92.60
2023-01-01T08:13:33.218Z,96.40
2023-01-01T08:16:00.371Z,96.70
2023-01-01T08:18:27.372Z,88.97
2023-01-01T08:20:54.435Z,103.60
2023-01-01T08:23:21.475Z,98.50
2023-01-01T08:25:48.480Z,103.25
2023-01-01T08:28:15.439Z,94.15
2023-01-01T08:30:43.473Z,101.43
2023-01-01T08:33:12.112Z,109.72
2023-01-01T08:35:42.062Z,113.30
2023-01-01T08:38:12.144Z,111.82
2023-01-01T08:40:39.477Z,114.30
2023-01-01T08:43:06.427Z,111.72
2023-01-01T08:45:33.933Z,100.82
2023-01-01T08:48:01.031Z,94.95
2023-01-01T08:50:27.950Z,86.47
2023-01-01T08:52:59.270Z,91.47
2023-01-01T08:55:28.721Z,85.55
2023-01-01T08:57:55.693Z,84.60
2023-01-01T09:00:22.561Z,84.60
2023-01-01T09:02:49.980Z,83.93
2023-01-01T09:05:17.272Z,104.85
2023-01-01T09:07:44.407Z,109.63
2023-01-01T09:10:11.319Z,103.60
2023-01-01T09:12:38.431Z,95.93
2023-01-01T09:15:06.442Z,74.75
2023-01-01T09:17:33.245Z,49.85
2023-01-01T09:20:00.350Z,56.42
2023-01-01T09:22:27.380Z,54.67
2023-01-01T09:24:54.601Z,61.22
2023-01-01T09:27:21.727Z,84.63
2023-01-01T09:30:00.172Z,66.03
2023-01-01T09:32:39.727Z,64.97
2023-01-01T09:35:07.991Z,75.10
2023-01-01T09:37:37.812Z,77.03
2023-01-01T09:40:09.431Z,54.15
2023-01-01T09:42:49.278Z,69.95
2023-01-01T09:45:29.618Z,106.65
2023-01-01T09:47:59.457Z,66.95
2023-01-01T09:50:36.725Z,45.10
2023-01-01T09:53:21.404Z,32.58
2023-01-01T09:55:58.543Z,24.35
2023-01-01T09:58:36.267Z,24.60
2023-01-01T10:01:29.608Z,15.80
2023-01-01T10:04:13.611Z,11.95
2023-01-01T10:06:56.842Z,52.88
2023-01-01T10:13:07.007Z,25.67
2023-01-01T10:15:40.807Z,30.25
2023-01-01T10:18:22.313Z,8.07
2023-01-01T10:23:39.174Z,7.07
2023-01-01T10:26:15.284Z,9.60
2023-01-01T10:29:05.836Z,6.05
2023-01-01T10:31:34.629Z,5.45
2023-01-01T10:34:16.940Z,5.82
2023-01-01T10:36:54.801Z,6.07
2023-01-01T10:39:24.093Z,6.05
2023-01-01T10:41:51.869Z,4.72
2023-01-01T10:44:34.837Z,7.40
2023-01-01T10:47:26.498Z,7.35
2023-01-01T10:50:00.669Z,7.20
2023-01-01T10:52:46.589Z,6.40
2023-01-01T10:55:21.665Z,8.48
2023-01-01T10:57:48.940Z,15.07
2023-01-01T11:00:32.258Z,14.00
2023-01-01T11:03:20.130Z,11.10
2023-01-01T11:06:16.189Z,7.60
2023-01-01T11:08:54.017Z,9.68
2023-01-01T11:11:29.591Z,6.80
2023-01-01T11:14:00.510Z,7.22
2023-01-01T11:16:29.275Z,4.70
2023-01-01T11:19:06.181Z,10.73
2023-01-01T11:21:35.276Z,36.80
2023-01-01T11:24:22.378Z,6.10
2023-01-01T11:26:54.916Z,7.30
2023-01-01T11:29:30.477Z,7.00
2023-01-01T11:32:10.844Z,3.53
2023-01-01T11:34:44.402Z,5.93
2023-01-01T11:37:26.901Z,3.85
2023-01-01T11:39:56.773Z,3.65
2023-01-01T11:42:29.270Z,20.40
2023-01-01T11:45:14.449Z,8.10
2023-01-01T11:47:43.704Z,4.90
2023-01-01T11:50:16.787Z,19.85
2023-01-01T11:52:46.975Z,15.40
2023-01-01T11:55:39.126Z,17.73
2023-01-01T11:58:28.358Z,29.90
2023-01-01T12:01:02.302Z,6.43
2023-01-01T12:03:40.964Z,13.43
2023-01-01T12:06:25.170Z,7.80
2023-01-01T12:09:18.663Z,11.23
2023-01-01T12:11:57.962Z,10.52
2023-01-01T12:14:46.666Z,7.43
2023-01-01T12:17:23.891Z,11.93
2023-01-01T12:20:40.634Z,5.10
2023-01-01T12:23:06.556Z,20.02
2023-01-01T12:25:41.307Z,5.78
2023-01-01T12:28:23.671Z,8.38
2023-01-01T12:31:14.115Z,15.23
2023-01-01T12:34:23.392Z,3.92
2023-01-01T12:37:19.712Z,8.90
2023-01-01T12:40:24.320Z,6.82
2023-01-01T12:43:07.095Z,8.20
2023-01-01T12:49:28.430Z,6.75
2023-01-01T12:52:14.770Z,4.68
2023-01-01T12:55:20.095Z,6.70
2023-01-01T12:58:20.180Z,4.60
2023-01-01T13:00:59.735Z,6.10
2023-01-01T13:03:57.421Z,7.25
2023-01-01T13:06:52.435Z,8.80
2023-01-01T13:09:23.859Z,6.30
2023-01-01T13:11:55.571Z,6.47
2023-01-01T13:14:23.053Z,8.38
2023-01-01T13:16:56.979Z,7.68
2023-01-01T13:19:33.104Z,12.43
2023-01-01T13:22:21.238Z,18.80
2023-01-01T13:25:07.114Z,18.17
2023-01-01T13:28:05.173Z,10.10
2023-01-01T13:30:38.402Z,9.68
2023-01-01T13:33:36.909Z,7.72
2023-01-01T13:36:10.502Z,12.23
2023-01-01T13:39:04.070Z,7.57
2023-01-01T13:41:39.374Z,14.63
2023-01-01T13:44:07.933Z,15.73
2023-01-01T13:47:09.338Z,7.72
2023-01-01T13:49:42.383Z,52.50
2023-01-01T13:52:28.275Z,115.15
2023-01-01T13:55:32.241Z,105.60
2023-01-01T13:58:07.791Z,38.60
2023-01-01T14:01:05.999Z,33.20
2023-01-01T14:03:40.849Z,19.10
2023-01-01T14:06:37.892Z,14.70
2023-01-01T14:09:14.228Z,28.27
2023-01-01T14:11:42.109Z,29.85
2023-01-01T14:14:24.627Z,24.20
2023-01-01T14:16:53.969Z,12.23
2023-01-01T14:19:22.793Z,14.25
2023-01-01T14:21:50.291Z,19.70
2023-01-01T14:24:19.840Z,12.40
2023-01-01T14:26:47.881Z,19.35
2023-01-01T14:29:42.285Z,16.88
2023-01-01T14:32:24.439Z,25.38
2023-01-01T14:35:01.770Z,21.60
2023-01-01T14:37:29.574Z,25.15
2023-01-01T14:40:18.240Z,34.63
2023-01-01T14:42:49.129Z,30.42
2023-01-01T14:45:18.398Z,26.15
2023-01-01T14:47:52.272Z,24.73
2023-01-01T14:50:31.262Z,22.38
2023-01-01T14:53:08.971Z,26.80
2023-01-01T14:55:47.257Z,33.20
2023-01-01T14:58:19.870Z,63.63
2023-01-01T15:00:46.999Z,54.13
2023-01-01T15:03:22.880Z,56.53
2023-01-01T15:06:01.425Z,53.28
2023-01-01T15:08:28.755Z,52.88
2023-01-01T15:10:56.900Z,63.20
2023-01-01T15:13:32.508Z,69.00
2023-01-01T15:16:45.804Z,85.13
2023-01-01T15:19:20.868Z,77.55
2023-01-01T15:22:43.985Z,89.45
2023-01-01T15:25:52.212Z,87.22
2023-01-01T15:28:53.244Z,98.37
2023-01-01T15:31:20.425Z,106.15
2023-01-01T15:34:04.875Z,145.45
2023-01-01T15:36:33.536Z,107.13
2023-01-01T15:39:56.016Z,124.15
2023-01-01T15:42:38.848Z,128.85
2023-01-01T15:45:31.111Z,137.13
2023-01-01T15:48:32.096Z,142.05
2023-01-01T15:51:25.911Z,210.55
2023-01-01T15:54:02.228Z,247.10
2023-01-01T15:56:41.726Z,199.43
2023-01-01T15:59:27.746Z,142.68
2023-01-01T16:02:15.044Z,175.00
2023-01-01T16:04:50.124Z,209.18
2023-01-01T16:07:20.990Z,196.88
2023-01-01T16:09:51.987Z,118.25
2023-01-01T16:12:24.050Z,99.20
2023-01-01T16:14:51.068Z,89.00
2023-01-01T16:17:20.735Z,96.43
2023-01-01T16:19:48.460Z,135.23
2023-01-01T16:22:17.686Z,105.65
2023-01-01T16:24:45.624Z,89.82
2023-01-01T16:27:12.869Z,87.53
2023-01-01T16:29:54.352Z,65.43
2023-01-01T16:32:23.652Z,66.95
2023-01-01T16:34:59.818Z,65.70
2023-01-01T16:37:27.750Z,65.70
2023-01-01T16:39:54.596Z,64.28
2023-01-01T16:42:39.685Z,65.50
2023-01-01T16:45:07.420Z,56.90
2023-01-01T16:47:34.762Z,63.97
2023-01-01T16:50:01.783Z,81.18
2023-01-01T16:52:33.533Z,101.75
2023-01-01T16:55:01.040Z,72.00
2023-01-01T16:57:28.077Z,84.30
2023-01-01T16:59:55.139Z,73.75
2023-01-01T17:02:22.030Z,106.60
2023-01-01T17:04:48.978Z,105.57
2023-01-01T17:07:15.965Z,88.47
2023-01-01T17:09:43.250Z,104.68
2023-01-01T17:12:58.960Z,88.00
2023-01-01T17:15:25.923Z,100.97
2023-01-01T17:18:07.765Z,112.25
2023-01-01T17:20:44.430Z,104.53
2023-01-01T17:23:11.435Z,106.07
2023-01-01T17:25:38.490Z,90.57
2023-01-01T17:28:05.575Z,88.13
2023-01-01T17:30:32.609Z,98.28
2023-01-01T17:32:59.700Z,101.80
2023-01-01T17:35:32.911Z,105.88
2023-01-01T17:38:00.251Z,115.32
2023-01-01T17:40:30.799Z,108.35
2023-01-01T17:43:00.665Z,100.68
2023-01-01T17:45:27.559Z,97.25
2023-01-01T17:47:56.061Z,95.35
2023-01-01T17:50:24.297Z,85.10
2023-01-01T17:52:55.115Z,99.15
2023-01-01T17:55:22.672Z,104.32
2023-01-01T17:57:59.348Z,99.28
2023-01-01T18:00:28.087Z,98.93
2023-01-01T18:02:55.385Z,76.75
2023-01-01T18:05:22.627Z,63.45
2023-01-01T18:07:53.021Z,88.50
2023-01-01T18:10:20.926Z,109.27
2023-01-01T18:12:47.777Z,92.07
2023-01-01T18:15:15.554Z,83.85
2023-01-01T18:17:43.566Z,72.90
2023-01-01T18:20:10.983Z,98.18
2023-01-01T18:22:42.940Z,78.78
2023-01-01T18:25:10.720Z,108.80
2023-01-01T18:27:37.866Z,97.32
2023-01-01T18:30:05.777Z,131.15
2023-01-01T18:32:32.793Z,155.23
2023-01-01T18:34:59.855Z,131.93
2023-01-01T18:37:27.064Z,112.30
2023-01-01T18:39:59.293Z,106.38
2023-01-01T18:42:49.416Z,125.68
2023-01-01T18:45:22.775Z,107.07
2023-01-01T18:47:55.823Z,106.00
2023-01-01T18:50:26.612Z,115.13
2023-01-01T18:52:58.281Z,111.45
2023-01-01T18:55:28.214Z,110.25
2023-01-01T18:58:00.532Z,87.20
2023-01-01T19:00:31.177Z,158.45
2023-01-01T19:03:01.172Z,81.75
2023-01-01T19:05:30.843Z,57.10
2023-01-01T19:08:05.165Z,62.75
2023-01-01T19:10:35.753Z,101.00
2023-01-01T19:13:29.053Z,126.95
2023-01-01T19:16:11.840Z,124.15
2023-01-01T19:18:41.096Z,123.13
2023-01-01T19:21:08.015Z,85.90
2023-01-01T19:23:38.998Z,97.47
2023-01-01T19:26:11.598Z,103.53
2023-01-01T19:28:41.564Z,85.65
2023-01-01T19:31:09.807Z,75.28
2023-01-01T19:33:36.703Z,64.05
2023-01-01T19:36:03.958Z,50.35
2023-01-01T19:38:32.259Z,51.08
2023-01-01T19:40:59.173Z,54.90
2023-01-01T19:43:27.452Z,62.85
2023-01-01T19:45:54.828Z,111.32
2023-01-01T19:48:21.974Z,121.88
2023-01-01T19:50:50.149Z,130.07
2023-01-01T19:53:17.240Z,73.05
2023-01-01T19:55:44.332Z,63.15
2023-01-01T19:58:11.340Z,79.97
2023-01-01T20:00:38.759Z,74.47
2023-01-01T20:03:42.720Z,52.65
2023-01-01T20:05:52.700Z,46.35
2023-01-01T20:08:19.838Z,38.38
2023-01-01T20:10:46.863Z,39.80
2023-01-01T20:13:13.960Z,35.40
2023-01-01T20:15:46.515Z,49.67
2023-01-01T20:18:14.236Z,59.75
2023-01-01T20:21:00.005Z,78.78
2023-01-01T20:23:27.215Z,121.15
2023-01-01T20:25:54.190Z,132.32
2023-01-01T20:28:40.008Z,100.22
2023-01-01T20:31:07.064Z,91.70
2023-01-01T20:33:34.262Z,88.53
2023-01-01T20:36:19.966Z,90.63
2023-01-01T20:38:47.239Z,115.03
2023-01-01T20:41:23.467Z,88.50
2023-01-01T20:44:01.583Z,63.28
2023-01-01T20:46:31.879Z,51.92
2023-01-01T20:48:59.495Z,49.92
2023-01-01T20:51:27.599Z,44.60
2023-01-01T20:53:54.559Z,38.40
2023-01-01T20:56:21.620Z,26.58
2023-01-01T20:58:53.311Z,20.95
2023-01-01T21:01:25.087Z,24.65
2023-01-01T21:03:52.019Z,37.00
2023-01-01T21:06:24.215Z,33.05
2023-01-01T21:08:52.566Z,40.88
2023-01-01T21:11:19.455Z,40.47
2023-01-01T21:13:47.703Z,46.45
2023-01-01T21:16:17.647Z,43.90
2023-01-01T21:18:46.246Z,41.65
2023-01-01T21:21:16.065Z,27.23
2023-01-01T21:23:43.245Z,26.25
2023-01-01T21:26:36.212Z,31.60
2023-01-01T21:29:12.671Z,47.15
2023-01-01T21:31:40.548Z,49.20
2023-01-01T21:34:29.031Z,49.53
2023-01-01T21:37:02.086Z,72.65
2023-01-01T21:39:31.016Z,68.57
2023-01-01T21:42:16.260Z,74.55
2023-01-01T21:44:43.381Z,78.55
2023-01-01T21:47:25.101Z,93.82
2023-01-01T21:50:01.597Z,100.83
2023-01-01T21:52:34.058Z,64.07
2023-01-01T21:55:09.307Z,65.22
2023-01-01T21:57:37.920Z,56.65
2023-01-01T22:00:10.941Z,55.40
2023-01-01T22:02:39.695Z,46.28
2023-01-01T22:05:37.645Z,28.48
2023-01-01T22:08:24.874Z,40.13
2023-01-01T22:10:54.921Z,23.98
2023-01-01T22:13:22.789Z,19.10
2023-01-01T22:15:49.860Z,17.38
2023-01-01T22:18:31.600Z,18.30
2023-01-01T22:21:02.917Z,28.15
2023-01-01T22:26:12.018Z,38.65
2023-01-01T22:28:43.801Z,40.67
2023-01-01T22:31:18.010Z,49.25
2023-01-01T22:33:48.146Z,54.47
2023-01-01T22:36:26.347Z,72.25
2023-01-01T22:38:59.906Z,61.50
2023-01-01T22:41:27.087Z,72.90
2023-01-01T22:44:02.651Z,75.68
2023-01-01T22:46:35.967Z,87.00
2023-01-01T22:49:18.524Z,52.83
2023-01-01T22:51:47.677Z,39.28
2023-01-01T22:54:14.660Z,41.45
2023-01-01T22:56:41.637Z,30.08
2023-01-01T22:59:08.489Z,22.17
2023-01-01T23:01:36.184Z,28.83
2023-01-01T23:04:04.385Z,27.05
2023-01-01T23:06:32.714Z,31.50
2023-01-01T23:09:00.184Z,36.55
2023-01-01T23:11:27.816Z,27.02
2023-01-01T23:14:13.467Z,25.15
2023-01-01T23:16:41.192Z,37.83
2023-01-01T23:19:32.057Z,52.45
2023-01-01T23:22:01.874Z,41.72
2023-01-01T23:24:30.415Z,42.50
2023-01-01T23:26:59.475Z,38.80
2023-01-01T23:29:32.305Z,29.77
2023-01-01T23:32:01.565Z,31.02
2023-01-01T23:34:28.794Z,20.88
2023-01-01T23:36:57.298Z,17.08
2023-01-01T23:39:24.220Z,28.80
2023-01-01T23:41:51.721Z,25.60
2023-01-01T23:44:21.883Z,20.88
2023-01-01T23:46:49.109Z,22.58
2023-01-01T23:49:16.919Z,21.95
2023-01-01T23:51:43.967Z,32.40
2023-01-01T23:54:10.904Z,22.60
2023-01-01T23:56:38.434Z,25.33
2023-01-01T23:59:05.659Z,41.58
